Mount Isa Airport

Airport
ICAO code: 
YBMA
IATA Code: 
ISA
Summary
ICAO Region: 
APAC
Territory: 
Location: 
Mount Isa, Queensland
Serving: 
Mount Isa
Elevation: 
1121 ft
Coordinates: 
Aerial View: 
20° 40' 4.49" S, 139° 29' 30.106" E
Metar
Observation
YBMA 210534Z AUTO 08016KT 8000 TS SCT028 SCT047 BKN060 26/22 Q1008
Station
Mount Isa Amo
Date/Time
2022-01-21 05:34:00
Wind direction
80°
Wind speed
16 kts
Lowest cloud amount
scattered clouds
Temperature
26°C
Dew point
22°C
Humidity
78%
QNH
1008 hPa
Weather condition
n/a

Runways

Designator Length Width Surface Rops
12/30 854 18 GVL No/No
16/34 2560 45 ASP Yes/Yes
Airport map: 
Aerial View: 

SKYbrary Partners:

Safety knowledge contributed by: